Time;durP1;ratioP1;P1;durP2;ratioP2;P2;SDS_P1;SDS_P2;PMS_P1;PMS_P2;Temp;Humidity;BMP_temperature;BMP_pressure;BME280_temperature;BME280_humidity;BME280_pressure;Samples;Min_cycle;Max_cycle;Signal;HPM_P1;HPM_P2
2022/11/16 00:02:08;;;;;;;1.55;1.20;;;20.20;46.30;19.20;99677.00;;;;5025812;28;20051;-66
2022/11/16 00:04:33;;;;;;;2.57;1.30;;;20.20;46.30;19.20;99681.00;;;;5026337;28;20444;-66
2022/11/16 00:07:01;;;;;;;1.10;1.00;;;20.20;46.40;19.20;99680.00;;;;5039056;28;20506;-66
2022/11/16 00:09:30;;;;;;;1.20;1.00;;;20.10;46.40;19.30;99685.00;;;;5029216;28;20038;-66
2022/11/16 00:11:58;;;;;;;1.65;1.23;;;20.20;46.40;19.30;99672.00;;;;5027006;28;20426;-66
2022/11/16 00:14:25;;;;;;;1.00;0.80;;;20.10;46.40;19.30;99677.00;;;;5026630;28;20045;-66
2022/11/16 00:16:51;;;;;;;1.00;0.90;;;20.20;46.50;19.30;99667.00;;;;5032354;28;20486;-66
2022/11/16 00:19:17;;;;;;;1.70;0.90;;;20.10;46.50;19.30;99660.00;;;;5039637;28;20121;-66
2022/11/16 00:21:43;;;;;;;1.10;1.00;;;20.20;46.50;19.30;99667.00;;;;5034446;28;20025;-66
2022/11/16 00:24:16;;;;;;;1.50;1.40;;;20.20;46.50;19.30;99664.00;;;;5021244;28;20455;-67
2022/11/16 00:26:42;;;;;;;2.45;1.20;;;20.20;46.60;19.30;99666.00;;;;5031547;28;20053;-66
2022/11/16 00:29:15;;;;;;;1.20;0.90;;;20.20;46.60;19.30;99656.00;;;;5044604;28;20559;-66
2022/11/16 00:31:41;;;;;;;1.52;1.10;;;20.20;46.60;19.30;99655.00;;;;5026809;28;20029;-67
2022/11/16 00:34:07;;;;;;;1.47;1.07;;;20.20;46.60;19.30;99654.00;;;;5021370;28;20033;-66
2022/11/16 00:36:32;;;;;;;1.33;1.07;;;20.10;46.60;19.30;99647.00;;;;5025186;28;20056;-67
2022/11/16 00:38:58;;;;;;;1.17;1.00;;;20.20;46.60;19.30;99647.00;;;;5029430;28;20143;-66
2022/11/16 00:41:24;;;;;;;1.10;1.00;;;20.20;46.70;19.30;99647.00;;;;5037431;28;20387;-66
2022/11/16 00:43:49;;;;;;;1.67;1.17;;;20.20;46.70;19.30;99641.00;;;;5026010;28;20490;-67
2022/11/16 00:46:15;;;;;;;1.90;1.10;;;20.10;46.60;19.30;99642.00;;;;5033937;28;20096;-66
2022/11/16 00:48:41;;;;;;;1.50;1.13;;;20.20;46.70;19.30;99643.00;;;;5032148;28;20094;-67
2022/11/16 00:51:07;;;;;;;3.60;1.30;;;20.20;46.70;19.30;99639.00;;;;5024850;28;20036;-66
2022/11/16 00:53:32;;;;;;;0.87;0.87;;;20.20;46.70;19.30;99636.00;;;;5032726;28;20120;-66
2022/11/16 00:55:58;;;;;;;1.33;0.83;;;20.20;46.70;19.30;99633.00;;;;5020725;28;20116;-67
2022/11/16 00:58:24;;;;;;;1.13;0.97;;;20.20;46.70;19.30;99633.00;;;;5028988;28;20108;-66
2022/11/16 01:00:50;;;;;;;1.33;1.23;;;20.20;46.70;19.30;99632.00;;;;5035298;28;20120;-66
2022/11/16 01:03:15;;;;;;;1.40;1.00;;;20.20;46.70;19.30;99629.00;;;;5026069;28;20096;-66
2022/11/16 01:05:41;;;;;;;1.20;1.00;;;20.20;46.80;19.30;99627.00;;;;5033767;28;20028;-67
2022/11/16 01:08:07;;;;;;;1.20;0.97;;;20.20;46.80;19.30;99629.00;;;;5033000;28;20036;-66
2022/11/16 01:10:33;;;;;;;1.50;1.13;;;20.20;46.80;19.30;99616.00;;;;5031736;28;20499;-66
2022/11/16 01:12:59;;;;;;;1.87;0.90;;;20.20;46.80;19.30;99622.00;;;;5032048;28;20064;-66
2022/11/16 01:15:25;;;;;;;1.83;0.87;;;20.20;46.80;19.30;99614.00;;;;5040405;28;20033;-66
2022/11/16 01:17:52;;;;;;;1.02;0.93;;;20.20;46.80;19.30;99607.00;;;;5020289;28;20032;-66
2022/11/16 01:20:20;;;;;;;1.30;0.93;;;20.20;46.80;19.30;99619.00;;;;5025945;28;20388;-66
2022/11/16 01:22:46;;;;;;;2.35;1.23;;;20.20;46.80;19.30;99619.00;;;;5034561;28;20082;-66
2022/11/16 01:25:12;;;;;;;1.10;1.00;;;20.20;46.80;19.30;99612.00;;;;5011889;28;20500;-66
2022/11/16 01:27:38;;;;;;;1.27;1.00;;;20.20;46.80;19.30;99613.00;;;;5051113;28;20044;-66
2022/11/16 01:30:05;;;;;;;2.93;1.20;;;20.20;46.80;19.30;99609.00;;;;5033198;28;20037;-66
2022/11/16 01:32:31;;;;;;;1.15;1.08;;;20.20;46.80;19.30;99611.00;;;;5049240;28;20038;-66
2022/11/16 01:34:57;;;;;;;2.13;1.08;;;20.20;46.80;19.30;99612.00;;;;5044574;28;20120;-66
2022/11/16 01:37:23;;;;;;;1.63;1.10;;;20.20;46.80;19.30;99603.00;;;;5029461;28;20040;-66
2022/11/16 01:39:49;;;;;;;1.10;1.00;;;20.20;46.80;19.30;99603.00;;;;5026845;28;20108;-66
2022/11/16 01:42:22;;;;;;;1.38;1.13;;;20.30;46.90;19.30;99587.00;;;;5039388;28;20029;-66
2022/11/16 01:44:47;;;;;;;2.42;1.27;;;20.20;46.80;19.30;99588.00;;;;5025409;28;20030;-66
2022/11/16 01:47:15;;;;;;;1.53;1.13;;;20.10;46.80;19.30;99582.00;;;;5028721;28;20394;-67
2022/11/16 01:49:43;;;;;;;2.00;1.10;;;20.20;46.80;19.30;99589.00;;;;5050349;28;20113;-66
2022/11/16 01:52:14;;;;;;;1.80;1.25;;;20.10;46.80;19.30;99581.00;;;;5011602;28;20053;-66
2022/11/16 01:54:42;;;;;;;1.92;1.10;;;20.20;46.80;19.30;99573.00;;;;5033313;28;20042;-67
2022/11/16 01:57:10;;;;;;;1.38;1.10;;;20.20;46.80;19.30;99566.00;;;;5018661;28;20029;-66
2022/11/16 01:59:36;;;;;;;1.20;1.10;;;20.10;46.80;19.30;99567.00;;;;5010421;28;20026;-66
2022/11/16 02:02:02;;;;;;;1.40;1.20;;;20.20;46.90;19.30;99562.00;;;;5023623;28;20398;-66
2022/11/16 02:04:28;;;;;;;1.10;1.00;;;20.10;46.90;19.30;99568.00;;;;5049385;28;21009;-66
2022/11/16 02:07:21;;;;;;;1.47;1.00;;;20.10;46.90;19.20;99557.00;;;;5024550;28;20037;-66
2022/11/16 02:10:34;;;;;;;1.65;1.20;;;20.10;46.90;19.20;99556.00;;;;5029051;28;20494;-66
2022/11/16 02:13:42;;;;;;;1.48;1.05;;;20.10;46.90;19.20;99557.00;;;;5026339;28;20083;-67
2022/11/16 02:16:18;;;;;;;1.50;1.13;;;20.10;46.90;19.20;99546.00;;;;5029555;28;20516;-67
2022/11/16 02:19:12;;;;;;;2.57;1.40;;;20.20;47.00;19.20;99540.00;;;;5016464;28;20374;-66
2022/11/16 02:22:06;;;;;;;1.45;1.10;;;20.10;47.00;19.20;99546.00;;;;5005196;28;20554;-66
2022/11/16 02:25:07;;;;;;;1.45;1.10;;;20.10;47.00;19.20;99538.00;;;;5022100;28;20395;-67
2022/11/16 02:27:59;;;;;;;1.55;1.30;;;20.10;47.00;19.20;99542.00;;;;5017434;28;20029;-66
2022/11/16 02:30:25;;;;;;;1.85;1.35;;;20.10;47.10;19.20;99538.00;;;;5010208;28;20061;-67
2022/11/16 02:32:59;;;;;;;1.30;1.20;;;20.10;47.10;19.20;99534.00;;;;5025286;28;20348;-66
2022/11/16 02:35:35;;;;;;;1.20;1.00;;;20.10;47.10;19.20;99533.00;;;;5014536;28;20123;-67
2022/11/16 02:38:09;;;;;;;1.55;1.20;;;20.10;47.10;19.20;99527.00;;;;5031882;28;20025;-67
2022/11/16 02:40:35;;;;;;;2.03;1.48;;;20.10;47.20;19.20;99531.00;;;;5025248;28;20495;-66
2022/11/16 02:43:10;;;;;;;1.17;1.07;;;20.10;47.10;19.20;99525.00;;;;5017710;28;20017;-66
2022/11/16 02:45:58;;;;;;;1.38;1.10;;;20.10;47.20;19.20;99523.00;;;;5029881;28;20498;-67
2022/11/16 02:48:27;;;;;;;2.35;1.20;;;20.10;47.20;19.20;99536.00;;;;5028463;28;20029;-66
2022/11/16 02:50:53;;;;;;;1.50;1.30;;;20.10;47.20;19.20;99523.00;;;;5027575;28;20116;-66
2022/11/16 02:53:20;;;;;;;2.23;1.30;;;20.10;47.20;19.20;99524.00;;;;5016684;28;20497;-66
2022/11/16 02:55:45;;;;;;;;;;;20.10;47.20;19.20;99516.00;;;;5036301;28;20033;-67
2022/11/16 02:58:11;;;;;;;1.70;1.27;;;20.10;47.10;19.20;99523.00;;;;5032393;28;19913;-66
2022/11/16 03:01:02;;;;;;;1.70;1.10;;;20.10;47.10;19.20;99518.00;;;;5019942;28;20159;-67
2022/11/16 03:03:41;;;;;;;2.17;1.35;;;20.10;47.20;19.20;99515.00;;;;5031500;28;20303;-67
2022/11/16 03:06:17;;;;;;;2.58;1.45;;;20.10;47.20;19.20;99511.00;;;;5041403;28;20028;-67
2022/11/16 03:08:55;;;;;;;2.83;1.55;;;20.00;47.20;19.20;99512.00;;;;5014306;28;20029;-66
2022/11/16 03:14:12;;;;;;;1.90;1.30;;;20.10;47.30;19.20;99513.00;;;;5042863;28;20036;-66
2022/11/16 03:16:44;;;;;;;1.40;1.30;;;20.10;47.30;19.20;99510.00;;;;5010773;28;20120;-66
2022/11/16 03:19:13;;;;;;;1.67;1.42;;;20.00;47.30;19.20;99501.00;;;;5028768;28;20479;-67
2022/11/16 03:21:48;;;;;;;1.70;1.30;;;20.00;47.40;19.20;99500.00;;;;5026466;28;20022;-66
2022/11/16 03:24:14;;;;;;;2.00;1.42;;;20.00;47.40;19.20;99503.00;;;;5009598;28;20026;-66
2022/11/16 03:27:07;;;;;;;1.10;1.00;;;20.10;47.50;19.20;99497.00;;;;5029415;28;20533;-67
2022/11/16 03:30:01;;;;;;;1.30;1.17;;;20.00;47.40;19.20;99502.00;;;;5045997;28;20037;-67
2022/11/16 03:32:56;;;;;;;1.60;1.50;;;20.10;47.50;19.20;99506.00;;;;5024248;28;20113;-66
2022/11/16 03:35:26;;;;;;;1.55;1.33;;;20.00;47.50;19.20;99503.00;;;;5021100;28;20026;-66
2022/11/16 03:37:53;;;;;;;1.60;1.40;;;20.10;47.50;19.20;99495.00;;;;5030841;28;20033;-66
2022/11/16 03:40:18;;;;;;;;;;;20.00;47.50;19.20;99498.00;;;;5008720;28;20113;-66
2022/11/16 03:42:44;;;;;;;1.92;1.40;;;20.10;47.40;19.20;99495.00;;;;5027031;28;19913;-67
2022/11/16 03:45:11;;;;;;;1.55;1.40;;;20.10;47.50;19.20;99492.00;;;;5001981;28;20029;-66
2022/11/16 03:47:36;;;;;;;;;;;20.10;47.50;19.20;99499.00;;;;5003895;28;20065;-66
2022/11/16 03:50:03;;;;;;;2.45;1.30;;;20.10;47.40;19.20;99492.00;;;;5029374;28;19918;-66
2022/11/16 03:52:28;;;;;;;1.75;1.35;;;20.10;47.50;19.20;99495.00;;;;5020672;28;20077;-66
2022/11/16 03:54:54;;;;;;;1.63;1.30;;;20.10;47.50;19.20;99495.00;;;;5032082;28;20047;-67
2022/11/16 03:57:20;;;;;;;1.40;1.20;;;20.00;47.50;19.20;99492.00;;;;5026938;28;20044;-66
2022/11/16 03:59:45;;;;;;;1.97;1.70;;;20.10;47.60;19.20;99488.00;;;;5029308;28;20521;-66
2022/11/16 04:02:11;;;;;;;2.50;1.70;;;20.00;47.60;19.20;99493.00;;;;5026577;28;20432;-66
2022/11/16 04:24:21;;;;;;;2.10;1.48;;;20.00;47.80;19.10;99486.00;;;;5016327;28;20117;-67
2022/11/16 04:29:37;;;;;;;1.90;1.48;;;20.00;47.90;19.20;99489.00;;;;5030321;28;20045;-67
2022/11/16 04:37:48;;;;;;;1.95;1.50;;;20.00;47.90;19.20;99490.00;;;;5027585;28;20399;-66
2022/11/16 04:40:21;;;;;;;3.05;2.05;;;20.00;47.90;19.10;99492.00;;;;5028855;28;20120;-66
2022/11/16 04:42:54;;;;;;;2.00;1.55;;;20.00;47.90;19.20;99486.00;;;;5026619;28;20027;-66
2022/11/16 04:48:17;;;;;;;2.05;1.65;;;20.00;48.00;19.20;99502.00;;;;5014875;28;20057;-66
2022/11/16 04:50:43;;;;;;;3.10;1.58;;;20.00;47.90;19.20;99497.00;;;;5029479;28;20430;-66
2022/11/16 04:53:09;;;;;;;2.45;1.63;;;20.00;48.00;19.20;99495.00;;;;5033192;28;20025;-66
2022/11/16 04:55:35;;;;;;;1.60;1.50;;;20.00;48.00;19.20;99503.00;;;;5044556;28;20106;-67
2022/11/16 04:58:00;;;;;;;1.60;1.47;;;20.00;48.00;19.20;99504.00;;;;5031517;28;20056;-66
2022/11/16 05:00:27;;;;;;;4.10;2.00;;;20.00;48.00;19.20;99500.00;;;;5031212;28;20057;-66
2022/11/16 05:02:52;;;;;;;2.00;1.80;;;20.00;48.00;19.20;99500.00;;;;5037369;28;20457;-66
2022/11/16 05:05:18;;;;;;;1.40;1.30;;;20.00;48.00;19.20;99497.00;;;;5033866;28;20040;-66
2022/11/16 05:07:44;;;;;;;2.00;1.47;;;20.00;48.10;19.20;99494.00;;;;5031235;28;20219;-67
2022/11/16 05:10:10;;;;;;;1.90;1.38;;;20.00;48.00;19.20;99508.00;;;;5015762;28;20041;-66
2022/11/16 05:12:36;;;;;;;2.25;1.45;;;20.10;48.10;19.20;99496.00;;;;5044991;28;20199;-66
2022/11/16 05:15:03;;;;;;;2.00;1.42;;;20.00;48.10;19.20;99493.00;;;;5034573;28;20516;-66
2022/11/16 05:17:29;;;;;;;;;;;20.00;48.10;19.20;99499.00;;;;5033726;28;20033;-66
2022/11/16 05:22:39;;;;;;;2.03;1.70;;;20.10;48.00;19.10;99489.00;;;;5037349;28;20040;-66
2022/11/16 05:25:06;;;;;;;1.83;1.63;;;20.00;48.00;19.10;99486.00;;;;5033032;28;20544;-66
2022/11/16 05:27:31;;;;;;;1.90;1.55;;;20.00;48.00;19.10;99490.00;;;;5032857;28;20022;-66
2022/11/16 05:29:57;;;;;;;1.97;1.57;;;20.00;48.10;19.20;99486.00;;;;5037750;28;20035;-66
2022/11/16 05:32:24;;;;;;;1.70;1.37;;;20.00;48.10;19.20;99496.00;;;;5030887;28;20091;-66
2022/11/16 05:34:49;;;;;;;1.98;1.63;;;20.00;48.10;19.20;99494.00;;;;5031991;28;20594;-66
2022/11/16 05:37:16;;;;;;;2.13;1.87;;;20.00;48.10;19.20;99497.00;;;;5022810;28;20030;-67
2022/11/16 05:39:42;;;;;;;4.53;1.83;;;19.90;48.10;19.20;99499.00;;;;5033475;28;20033;-66
2022/11/16 05:42:07;;;;;;;1.63;1.43;;;20.00;48.10;19.20;99499.00;;;;5028955;28;20034;-66
2022/11/16 05:44:33;;;;;;;1.97;1.73;;;20.00;48.20;19.20;99504.00;;;;5021613;28;20391;-66
2022/11/16 05:46:59;;;;;;;3.07;1.73;;;20.00;48.20;19.20;99507.00;;;;5031461;28;20060;-67
2022/11/16 05:49:25;;;;;;;1.60;1.42;;;20.00;48.20;19.20;99499.00;;;;5030035;28;20034;-66
2022/11/16 05:51:51;;;;;;;2.40;1.53;;;20.10;48.20;19.20;99502.00;;;;5024008;28;20113;-67
2022/11/16 05:54:21;;;;;;;2.60;1.70;;;20.00;48.20;19.20;99509.00;;;;5028122;28;20030;-66
2022/11/16 05:56:48;;;;;;;2.13;1.50;;;20.00;48.20;19.20;99514.00;;;;5029908;28;20356;-67
2022/11/16 05:59:18;;;;;;;2.53;1.85;;;20.00;48.20;19.20;99520.00;;;;5027235;28;20951;-66
2022/11/16 06:01:44;;;;;;;3.70;1.40;;;20.00;48.30;19.20;99512.00;;;;5042732;28;20363;-66
2022/11/16 06:04:10;;;;;;;2.50;1.80;;;20.00;48.20;19.20;99511.00;;;;5019626;28;20032;-66
2022/11/16 06:06:36;;;;;;;1.92;1.50;;;20.00;48.30;19.20;99529.00;;;;5036453;28;20041;-66
2022/11/16 06:09:02;;;;;;;1.80;1.70;;;20.00;48.30;19.20;99527.00;;;;5022375;28;20112;-66
2022/11/16 06:11:28;;;;;;;3.43;1.80;;;20.00;48.30;19.20;99524.00;;;;5024618;28;20112;-66
2022/11/16 06:13:54;;;;;;;2.40;1.50;;;20.00;48.30;19.20;99519.00;;;;5031679;28;20078;-66
2022/11/16 06:16:19;;;;;;;2.37;1.70;;;20.00;48.30;19.20;99520.00;;;;5024252;28;20041;-66
2022/11/16 06:18:46;;;;;;;2.53;1.97;;;20.00;48.30;19.20;99515.00;;;;5047465;28;20025;-66
2022/11/16 06:21:12;;;;;;;3.95;1.75;;;20.10;48.40;19.20;99525.00;;;;5048485;28;20488;-67
2022/11/16 06:23:38;;;;;;;2.30;1.73;;;20.00;48.30;19.20;99523.00;;;;5033986;28;20116;-66
2022/11/16 06:26:04;;;;;;;1.93;1.80;;;20.10;48.40;19.20;99519.00;;;;5031405;28;20039;-67
2022/11/16 06:28:31;;;;;;;;;;;20.00;48.30;19.20;99531.00;;;;5050520;28;20505;-66
2022/11/16 06:30:57;;;;;;;2.28;1.52;;;20.10;48.20;19.20;99527.00;;;;5033445;28;19967;-66
2022/11/16 06:33:22;;;;;;;2.00;1.50;;;20.10;48.30;19.20;99528.00;;;;5038205;28;20029;-66
2022/11/16 06:35:48;;;;;;;2.27;1.83;;;20.10;48.40;19.20;99533.00;;;;5030273;28;20037;-67
2022/11/16 06:38:17;;;;;;;3.37;1.87;;;20.10;48.40;19.20;99544.00;;;;5027940;28;20033;-67
2022/11/16 06:40:55;;;;;;;3.28;2.00;;;20.10;48.40;19.20;99537.00;;;;5038350;28;20038;-66
2022/11/16 06:43:21;;;;;;;2.15;1.50;;;20.00;48.40;19.20;99535.00;;;;5030254;28;20030;-67
2022/11/16 06:45:51;;;;;;;2.53;1.70;;;20.00;48.40;19.20;99547.00;;;;5028692;28;20038;-67
2022/11/16 06:48:17;;;;;;;1.88;1.60;;;20.00;48.50;19.20;99548.00;;;;5035045;28;20025;-66
2022/11/16 06:50:43;;;;;;;2.78;1.95;;;20.00;48.40;19.20;99549.00;;;;5032075;28;20517;-67
2022/11/16 06:53:09;;;;;;;3.00;1.80;;;20.00;48.40;19.20;99547.00;;;;5038601;28;20045;-68
2022/11/16 06:55:34;;;;;;;3.43;1.80;;;20.00;48.50;19.20;99563.00;;;;5034286;28;20069;-67
2022/11/16 06:58:00;;;;;;;1.93;1.73;;;20.00;48.50;19.20;99564.00;;;;5031305;28;20120;-67
2022/11/16 07:00:26;;;;;;;1.57;1.43;;;20.00;48.50;19.20;99563.00;;;;5042148;28;20120;-66
2022/11/16 07:02:52;;;;;;;2.03;1.50;;;20.00;48.50;19.20;99565.00;;;;5024728;28;20112;-66
2022/11/16 07:05:18;;;;;;;2.58;1.60;;;20.00;48.50;19.20;99564.00;;;;5038691;28;20029;-67
2022/11/16 07:07:44;;;;;;;2.63;1.60;;;20.00;48.50;19.20;99564.00;;;;5036326;28;20051;-66
2022/11/16 07:10:10;;;;;;;1.97;1.70;;;20.10;48.60;19.20;99577.00;;;;5029811;28;20047;-66
2022/11/16 07:12:36;;;;;;;1.60;1.50;;;20.00;48.50;19.20;99579.00;;;;5024817;28;20563;-66
2022/11/16 07:15:01;;;;;;;1.70;1.37;;;20.00;48.60;19.20;99569.00;;;;5027403;28;20490;-66
2022/11/16 07:17:27;;;;;;;2.60;1.60;;;20.00;48.60;19.20;99569.00;;;;5027071;28;20062;-66
2022/11/16 07:19:53;;;;;;;2.10;1.90;;;20.00;48.60;19.20;99580.00;;;;5035413;28;20112;-67
2022/11/16 07:22:18;;;;;;;2.23;1.60;;;20.00;48.60;19.20;99579.00;;;;5037823;28;20027;-66
2022/11/16 07:24:44;;;;;;;2.73;1.90;;;20.00;48.60;19.20;99578.00;;;;5032680;28;20116;-67
2022/11/16 07:27:10;;;;;;;2.20;1.70;;;20.00;48.60;19.20;99579.00;;;;5036817;28;20114;-66
2022/11/16 07:29:36;;;;;;;1.70;1.60;;;20.00;48.60;19.20;99586.00;;;;5051357;28;20113;-66
2022/11/16 07:32:01;;;;;;;2.27;2.07;;;20.00;48.60;19.20;99588.00;;;;5034698;28;20681;-66
2022/11/16 07:34:27;;;;;;;3.30;1.57;;;20.00;48.60;19.20;99599.00;;;;5033195;28;20496;-66
2022/11/16 07:36:53;;;;;;;2.43;1.50;;;20.00;48.70;19.20;99598.00;;;;5020367;28;20437;-66
2022/11/16 07:39:20;;;;;;;4.23;1.60;;;20.00;48.70;19.20;99596.00;;;;5035320;28;20120;-66
2022/11/16 07:41:46;;;;;;;1.77;1.65;;;20.10;48.80;19.20;99602.00;;;;5025259;28;20550;-66
2022/11/16 07:44:12;;;;;;;3.57;1.60;;;20.00;48.70;19.20;99595.00;;;;5025088;28;20185;-66
2022/11/16 07:46:37;;;;;;;1.87;1.40;;;20.00;48.70;19.20;99608.00;;;;5028857;28;20109;-66
2022/11/16 07:49:06;;;;;;;2.27;1.40;;;20.00;48.70;19.20;99608.00;;;;5027077;28;20112;-66
2022/11/16 07:51:32;;;;;;;1.70;1.60;;;20.10;48.80;19.20;99615.00;;;;5032546;28;20033;-66
2022/11/16 07:53:57;;;;;;;1.77;1.37;;;20.10;48.80;19.20;99626.00;;;;5016770;28;20472;-66
2022/11/16 07:56:23;;;;;;;1.70;1.17;;;20.10;48.80;19.20;99624.00;;;;5037827;28;20120;-66
2022/11/16 07:58:49;;;;;;;2.40;1.80;;;20.00;48.80;19.20;99632.00;;;;5036141;28;20024;-66
2022/11/16 08:01:16;;;;;;;2.07;1.53;;;20.00;48.80;19.20;99636.00;;;;5034422;28;20487;-66
2022/11/16 08:03:42;;;;;;;;;;;20.00;48.80;19.20;99642.00;;;;5031101;28;21071;-66
2022/11/16 08:06:17;;;;;;;1.50;1.30;;;20.00;48.70;19.20;99640.00;;;;5021101;28;19921;-66
2022/11/16 08:08:43;;;;;;;1.70;1.60;;;20.10;48.90;19.20;99645.00;;;;5035804;28;20111;-66
2022/11/16 08:11:09;;;;;;;2.50;1.77;;;20.10;48.90;19.20;99645.00;;;;5025016;28;20112;-66
2022/11/16 08:13:36;;;;;;;;;;;20.00;48.90;19.10;99634.00;;;;5025166;28;20052;-66
2022/11/16 08:16:03;;;;;;;2.05;1.55;;;20.00;48.70;19.10;99645.00;;;;5024572;28;19972;-66
2022/11/16 08:18:29;;;;;;;2.35;1.45;;;20.10;48.90;19.10;99647.00;;;;5038758;28;20029;-66
2022/11/16 08:20:58;;;;;;;3.67;1.50;;;20.10;48.90;19.20;99646.00;;;;5019028;28;20030;-66
2022/11/16 08:23:24;;;;;;;3.17;1.50;;;20.00;48.90;19.10;99652.00;;;;5026612;28;20048;-66
2022/11/16 08:25:50;;;;;;;2.13;1.60;;;20.00;48.90;19.20;99655.00;;;;5029646;28;20025;-66
2022/11/16 08:28:15;;;;;;;2.40;1.55;;;20.00;48.90;19.20;99654.00;;;;5021334;28;20034;-66
2022/11/16 08:30:41;;;;;;;2.23;1.43;;;20.00;49.00;19.20;99662.00;;;;5027680;28;20029;-66
2022/11/16 08:33:08;;;;;;;2.53;1.40;;;20.00;49.00;19.20;99664.00;;;;5023176;28;20065;-66
2022/11/16 08:35:34;;;;;;;1.77;1.33;;;20.00;49.00;19.20;99664.00;;;;5025903;28;20029;-66
2022/11/16 08:38:00;;;;;;;1.63;1.23;;;20.00;49.00;19.20;99666.00;;;;5039764;28;20034;-66
2022/11/16 08:40:26;;;;;;;5.93;1.30;;;20.00;49.70;19.20;99664.00;;;;5027522;28;20044;-66
2022/11/16 08:42:55;;;;;;;2.05;1.45;;;20.00;49.10;19.20;99665.00;;;;5020933;28;20025;-66
2022/11/16 08:45:22;;;;;;;2.25;1.50;;;20.00;49.10;19.20;99667.00;;;;5027614;28;20034;-66
2022/11/16 08:47:48;;;;;;;;;;;20.00;49.10;19.10;99670.00;;;;5030428;28;20035;-66
2022/11/16 08:50:15;;;;;;;3.90;1.30;;;20.00;48.90;19.10;99671.00;;;;5024178;28;19913;-66
2022/11/16 08:52:40;;;;;;;;;;;20.10;49.00;19.10;99676.00;;;;5030905;28;20286;-66
2022/11/16 08:55:06;;;;;;;3.42;1.33;;;20.10;48.80;19.10;99675.00;;;;5023752;28;20321;-66
2022/11/16 08:57:32;;;;;;;2.45;1.60;;;20.10;48.90;19.10;99681.00;;;;5026668;28;20075;-66
2022/11/16 08:59:58;;;;;;;3.37;1.30;;;20.00;49.00;19.10;99683.00;;;;5025107;28;20033;-66
2022/11/16 09:02:26;;;;;;;2.07;1.30;;;20.10;49.10;19.20;99681.00;;;;5026115;28;20116;-66
2022/11/16 09:04:52;;;;;;;1.73;1.08;;;20.10;49.10;19.10;99679.00;;;;5038607;28;20048;-66
2022/11/16 09:07:18;;;;;;;1.20;1.10;;;20.10;49.20;19.20;99687.00;;;;5039095;28;20029;-66
2022/11/16 09:09:44;;;;;;;1.73;1.30;;;20.00;49.10;19.20;99687.00;;;;5029258;28;20455;-66
2022/11/16 09:12:09;;;;;;;2.03;1.13;;;20.00;49.50;19.20;99687.00;;;;5025089;28;20505;-66
2022/11/16 09:14:35;;;;;;;1.83;1.50;;;20.00;49.20;19.20;99686.00;;;;5043330;28;20116;-66
2022/11/16 09:17:01;;;;;;;2.20;1.50;;;20.00;49.20;19.20;99691.00;;;;5043645;28;20068;-66
2022/11/16 09:19:27;;;;;;;1.80;1.53;;;20.00;49.20;19.20;99680.00;;;;5023240;28;20459;-66
2022/11/16 09:21:53;;;;;;;2.92;1.17;;;20.00;49.20;19.20;99675.00;;;;5032611;28;20356;-66
2022/11/16 09:24:19;;;;;;;1.33;1.03;;;20.10;49.30;19.20;99679.00;;;;5024397;28;20098;-66
2022/11/16 09:26:44;;;;;;;1.87;1.20;;;20.10;49.30;19.20;99688.00;;;;5046820;28;20467;-66
2022/11/16 09:29:12;;;;;;;1.47;1.00;;;20.10;49.40;19.20;99692.00;;;;5036809;28;20021;-66
2022/11/16 09:31:38;;;;;;;3.10;1.50;;;20.10;49.40;19.20;99685.00;;;;5030973;28;20030;-66
2022/11/16 09:34:04;;;;;;;1.30;1.20;;;20.10;49.40;19.20;99699.00;;;;5025683;28;20394;-66
2022/11/16 09:36:29;;;;;;;1.90;0.85;;;20.10;49.30;19.20;99705.00;;;;5028213;28;20025;-66
2022/11/16 09:38:55;;;;;;;3.27;1.57;;;20.10;49.40;19.20;99708.00;;;;5020701;28;20037;-66
2022/11/16 09:41:50;;;;;;;1.17;1.00;;;20.10;49.40;19.20;99712.00;;;;5030346;28;20029;-66
2022/11/16 09:44:53;;;;;;;1.52;1.00;;;20.10;49.40;19.20;99718.00;;;;5023468;28;20046;-66
2022/11/16 09:47:21;;;;;;;2.50;1.33;;;20.10;49.50;19.20;99732.00;;;;5025414;28;20049;-66
2022/11/16 09:49:51;;;;;;;2.88;1.33;;;20.10;49.40;19.20;99725.00;;;;5032836;28;20031;-66
2022/11/16 09:52:42;;;;;;;1.13;0.95;;;20.10;49.40;19.20;99728.00;;;;5033957;28;20400;-66
2022/11/16 09:55:31;;;;;;;1.80;1.70;;;20.00;49.40;19.20;99736.00;;;;5027504;28;20064;-66
2022/11/16 09:57:58;;;;;;;1.83;1.00;;;20.10;49.50;19.20;99739.00;;;;5014296;28;20091;-66
2022/11/16 10:00:24;;;;;;;1.48;0.95;;;20.10;49.50;19.20;99743.00;;;;5029804;28;20112;-66
2022/11/16 10:03:10;;;;;;;1.30;1.00;;;20.00;49.40;19.20;99744.00;;;;5042489;28;20033;-66
2022/11/16 10:05:55;;;;;;;1.52;0.88;;;20.00;49.50;19.20;99743.00;;;;5015811;28;20042;-66
2022/11/16 10:08:43;;;;;;;2.45;0.80;;;20.10;49.60;19.20;99745.00;;;;5031355;28;20053;-66
2022/11/16 10:11:26;;;;;;;;;;;20.00;49.60;19.10;99739.00;;;;5038236;28;20073;-66
2022/11/16 10:14:30;;;;;;;1.85;0.90;;;20.10;49.30;19.10;99746.00;;;;5026508;28;19913;-66
2022/11/16 10:17:18;;;;;;;2.53;0.95;;;20.10;49.50;19.10;99750.00;;;;5040150;28;20029;-66
2022/11/16 10:20:32;;;;;;;2.15;0.80;;;20.10;49.60;19.10;99751.00;;;;5039332;28;20022;-66
2022/11/16 10:23:32;;;;;;;2.05;1.00;;;20.00;49.60;19.10;99745.00;;;;5038551;28;20036;-66
2022/11/16 10:26:39;;;;;;;2.95;0.77;;;20.00;49.50;19.10;99740.00;;;;5033744;28;20025;-66
2022/11/16 10:29:26;;;;;;;1.20;0.88;;;20.00;49.60;19.10;99732.00;;;;5029453;28;20128;-67
2022/11/16 10:32:39;;;;;;;1.10;0.80;;;20.00;49.60;19.10;99745.00;;;;5038048;28;20025;-66
2022/11/16 10:35:11;;;;;;;1.38;0.70;;;20.00;49.60;19.10;99746.00;;;;5035181;28;20436;-66
2022/11/16 10:37:45;;;;;;;2.60;1.00;;;20.10;49.70;19.10;99732.00;;;;5035337;28;20155;-66
2022/11/16 10:40:19;;;;;;;2.05;1.08;;;20.00;49.60;19.10;99740.00;;;;5033384;28;20064;-66
2022/11/16 10:43:16;;;;;;;1.33;0.82;;;20.00;49.70;19.20;99724.00;;;;5031140;28;20549;-66
2022/11/16 10:46:18;;;;;;;1.48;0.77;;;20.10;49.70;19.20;99731.00;;;;5007456;28;20412;-66
2022/11/16 10:48:58;;;;;;;2.28;1.05;;;20.10;49.70;19.20;99728.00;;;;5036693;28;20471;-66
2022/11/16 10:51:24;;;;;;;2.90;0.95;;;20.00;49.60;19.20;99724.00;;;;5046064;28;20048;-66
2022/11/16 10:53:51;;;;;;;1.63;0.87;;;20.00;49.60;19.20;99715.00;;;;5030989;28;20033;-67
2022/11/16 10:56:38;;;;;;;1.90;0.90;;;20.00;49.60;19.20;99724.00;;;;5043242;28;20075;-66
2022/11/16 10:59:08;;;;;;;2.03;0.90;;;20.00;49.60;19.20;99723.00;;;;5020566;28;20118;-66
2022/11/16 11:01:46;;;;;;;1.15;0.90;;;20.10;49.60;19.20;99711.00;;;;5031108;28;20034;-67
2022/11/16 11:04:23;;;;;;;2.03;1.10;;;20.00;49.60;19.20;99718.00;;;;5031356;28;20032;-67
2022/11/16 11:06:56;;;;;;;2.45;0.90;;;20.10;49.70;19.20;99715.00;;;;5030331;28;20452;-66
2022/11/16 11:09:33;;;;;;;3.17;1.20;;;20.10;49.70;19.20;99713.00;;;;5039842;28;20041;-67
2022/11/16 11:15:01;;;;;;;4.60;1.33;;;20.10;49.80;19.20;99713.00;;;;5026661;28;20267;-66
2022/11/16 11:17:27;;;;;;;;;;;20.10;49.70;19.10;99718.00;;;;5049478;28;20112;-67
2022/11/16 11:20:06;;;;;;;4.10;1.50;;;20.10;49.50;19.20;99715.00;;;;5039727;28;20054;-66
2022/11/16 11:22:57;;;;;;;2.45;1.88;;;20.10;49.80;19.20;99714.00;;;;5037948;28;20135;-66
2022/11/16 11:25:35;;;;;;;3.67;1.73;;;20.10;49.80;19.10;99721.00;;;;5030465;28;20041;-66
2022/11/16 11:28:32;;;;;;;3.95;1.80;;;20.10;49.80;19.10;99710.00;;;;5023612;28;20036;-67
2022/11/16 11:31:24;;;;;;;3.30;1.65;;;20.10;49.80;19.10;99707.00;;;;5029581;28;20029;-66
2022/11/16 11:34:22;;;;;;;2.85;1.52;;;20.10;49.80;19.10;99711.00;;;;5008302;28;20033;-66
2022/11/16 11:36:56;;;;;;;;;;;20.10;49.70;19.10;99708.00;;;;5029623;28;20134;-66
2022/11/16 11:39:21;;;;;;;3.13;1.70;;;20.10;49.50;19.10;99714.00;;;;5027623;28;19971;-67
2022/11/16 11:42:05;;;;;;;3.43;1.80;;;20.10;49.50;19.10;99712.00;;;;5031949;28;20029;-66
2022/11/16 11:45:05;;;;;;;3.85;1.65;;;20.10;49.50;19.10;99707.00;;;;5040105;28;20066;-66
2022/11/16 11:47:55;;;;;;;2.80;1.73;;;20.00;49.50;19.10;99715.00;;;;5020164;28;20056;-66
2022/11/16 11:50:53;;;;;;;6.05;1.95;;;20.00;49.50;19.10;99706.00;;;;5029855;28;20029;-66
2022/11/16 11:53:53;;;;;;;3.80;1.67;;;20.00;49.50;19.10;99713.00;;;;5027472;28;20124;-66
2022/11/16 11:56:19;;;;;;;6.03;1.90;;;20.00;49.50;19.10;99707.00;;;;5010014;28;20423;-66